sensor_id;sensor_type;location;lat;lon;timestamp;temperature;humidity
5011;DHT22;2524;54.364;10.072;2023-11-22T00:02:11;4.50;99.90
5011;DHT22;2524;54.364;10.072;2023-11-22T00:04:36;4.50;99.90
5011;DHT22;2524;54.364;10.072;2023-11-22T00:07:02;4.50;99.90
5011;DHT22;2524;54.364;10.072;2023-11-22T00:09:27;4.60;99.90
5011;DHT22;2524;54.364;10.072;2023-11-22T00:11:53;4.50;99.90
5011;DHT22;2524;54.364;10.072;2023-11-22T00:14:18;4.40;99.90
5011;DHT22;2524;54.364;10.072;2023-11-22T00:16:44;4.40;99.90
5011;DHT22;2524;54.364;10.072;2023-11-22T00:19:09;4.40;99.90
5011;DHT22;2524;54.364;10.072;2023-11-22T00:21:35;4.50;99.90
5011;DHT22;2524;54.364;10.072;2023-11-22T00:24:01;4.50;99.90
5011;DHT22;2524;54.364;10.072;2023-11-22T00:26:26;4.50;99.90
5011;DHT22;2524;54.364;10.072;2023-11-22T00:28:52;4.40;99.90
5011;DHT22;2524;54.364;10.072;2023-11-22T00:31:19;4.40;99.90
5011;DHT22;2524;54.364;10.072;2023-11-22T00:33:44;4.40;99.90
5011;DHT22;2524;54.364;10.072;2023-11-22T00:36:10;4.40;99.90
5011;DHT22;2524;54.364;10.072;2023-11-22T00:38:35;4.40;99.90
5011;DHT22;2524;54.364;10.072;2023-11-22T00:41:02;4.30;99.90
5011;DHT22;2524;54.364;10.072;2023-11-22T00:43:28;4.30;99.90
5011;DHT22;2524;54.364;10.072;2023-11-22T00:45:53;4.40;99.90
5011;DHT22;2524;54.364;10.072;2023-11-22T00:48:19;4.30;99.90
5011;DHT22;2524;54.364;10.072;2023-11-22T00:50:45;4.30;99.90
5011;DHT22;2524;54.364;10.072;2023-11-22T00:53:10;4.30;99.90
5011;DHT22;2524;54.364;10.072;2023-11-22T00:55:36;4.30;99.90
5011;DHT22;2524;54.364;10.072;2023-11-22T00:58:01;4.30;99.90
5011;DHT22;2524;54.364;10.072;2023-11-22T01:00:30;4.20;99.90
5011;DHT22;2524;54.364;10.072;2023-11-22T01:02:56;4.20;99.90
5011;DHT22;2524;54.364;10.072;2023-11-22T01:05:21;4.10;99.90
5011;DHT22;2524;54.364;10.072;2023-11-22T01:07:48;4.00;99.90
5011;DHT22;2524;54.364;10.072;2023-11-22T01:10:13;4.00;99.90
5011;DHT22;2524;54.364;10.072;2023-11-22T01:12:39;4.00;99.90
5011;DHT22;2524;54.364;10.072;2023-11-22T01:15:05;4.00;99.90
5011;DHT22;2524;54.364;10.072;2023-11-22T01:17:31;4.00;99.90
5011;DHT22;2524;54.364;10.072;2023-11-22T01:19:56;4.00;99.90
5011;DHT22;2524;54.364;10.072;2023-11-22T01:22:24;4.00;99.90
5011;DHT22;2524;54.364;10.072;2023-11-22T01:24:49;4.00;99.90
5011;DHT22;2524;54.364;10.072;2023-11-22T01:27:15;3.90;99.90
5011;DHT22;2524;54.364;10.072;2023-11-22T01:29:40;3.90;99.90
5011;DHT22;2524;54.364;10.072;2023-11-22T01:32:07;3.90;99.90
5011;DHT22;2524;54.364;10.072;2023-11-22T01:34:34;3.90;99.90
5011;DHT22;2524;54.364;10.072;2023-11-22T01:36:59;4.00;99.90
5011;DHT22;2524;54.364;10.072;2023-11-22T01:39:25;4.00;99.90
5011;DHT22;2524;54.364;10.072;2023-11-22T01:41:52;4.00;99.90
5011;DHT22;2524;54.364;10.072;2023-11-22T01:44:17;4.00;99.90
5011;DHT22;2524;54.364;10.072;2023-11-22T01:46:43;4.00;99.90
5011;DHT22;2524;54.364;10.072;2023-11-22T01:49:10;3.90;99.90
5011;DHT22;2524;54.364;10.072;2023-11-22T01:51:37;4.00;99.90
5011;DHT22;2524;54.364;10.072;2023-11-22T01:54:03;4.00;99.90
5011;DHT22;2524;54.364;10.072;2023-11-22T01:56:29;4.00;99.90
5011;DHT22;2524;54.364;10.072;2023-11-22T01:58:57;4.00;99.90
5011;DHT22;2524;54.364;10.072;2023-11-22T02:01:22;3.90;99.90
5011;DHT22;2524;54.364;10.072;2023-11-22T02:03:48;3.90;99.90
5011;DHT22;2524;54.364;10.072;2023-11-22T02:06:15;3.90;99.90
5011;DHT22;2524;54.364;10.072;2023-11-22T02:08:42;3.90;99.90
5011;DHT22;2524;54.364;10.072;2023-11-22T02:11:08;3.90;99.90
5011;DHT22;2524;54.364;10.072;2023-11-22T02:13:33;3.90;99.90
5011;DHT22;2524;54.364;10.072;2023-11-22T02:15:59;3.90;99.90
5011;DHT22;2524;54.364;10.072;2023-11-22T02:18:27;3.80;99.90
5011;DHT22;2524;54.364;10.072;2023-11-22T02:20:53;3.80;99.90
5011;DHT22;2524;54.364;10.072;2023-11-22T02:23:18;3.80;99.90
5011;DHT22;2524;54.364;10.072;2023-11-22T02:25:44;3.80;99.90
5011;DHT22;2524;54.364;10.072;2023-11-22T02:28:11;3.80;99.90
5011;DHT22;2524;54.364;10.072;2023-11-22T02:30:37;3.70;99.90
5011;DHT22;2524;54.364;10.072;2023-11-22T02:33:03;3.70;99.90
5011;DHT22;2524;54.364;10.072;2023-11-22T02:35:30;3.70;99.90
5011;DHT22;2524;54.364;10.072;2023-11-22T02:38:00;3.60;99.90
5011;DHT22;2524;54.364;10.072;2023-11-22T02:40:26;3.60;99.90
5011;DHT22;2524;54.364;10.072;2023-11-22T02:42:53;3.50;99.90
5011;DHT22;2524;54.364;10.072;2023-11-22T02:45:21;3.50;99.90
5011;DHT22;2524;54.364;10.072;2023-11-22T02:47:49;3.50;99.90
5011;DHT22;2524;54.364;10.072;2023-11-22T02:50:15;3.50;99.90
5011;DHT22;2524;54.364;10.072;2023-11-22T02:52:41;3.50;99.90
5011;DHT22;2524;54.364;10.072;2023-11-22T02:55:08;3.40;99.90
5011;DHT22;2524;54.364;10.072;2023-11-22T02:57:35;3.40;99.90
5011;DHT22;2524;54.364;10.072;2023-11-22T03:00:02;3.40;99.90
5011;DHT22;2524;54.364;10.072;2023-11-22T03:02:29;3.40;99.90
5011;DHT22;2524;54.364;10.072;2023-11-22T03:04:55;3.50;99.90
5011;DHT22;2524;54.364;10.072;2023-11-22T03:07:21;3.50;99.90
5011;DHT22;2524;54.364;10.072;2023-11-22T03:09:46;3.50;99.90
5011;DHT22;2524;54.364;10.072;2023-11-22T03:12:12;3.50;99.90
5011;DHT22;2524;54.364;10.072;2023-11-22T03:14:39;3.40;99.90
5011;DHT22;2524;54.364;10.072;2023-11-22T03:17:05;3.40;99.90
5011;DHT22;2524;54.364;10.072;2023-11-22T03:19:31;3.40;99.90
5011;DHT22;2524;54.364;10.072;2023-11-22T03:21:59;3.40;99.90
5011;DHT22;2524;54.364;10.072;2023-11-22T03:24:25;3.40;99.90
5011;DHT22;2524;54.364;10.072;2023-11-22T03:26:51;3.40;99.90
5011;DHT22;2524;54.364;10.072;2023-11-22T03:29:18;3.40;99.90
5011;DHT22;2524;54.364;10.072;2023-11-22T03:31:44;3.40;99.90
5011;DHT22;2524;54.364;10.072;2023-11-22T03:34:09;3.50;99.90
5011;DHT22;2524;54.364;10.072;2023-11-22T03:36:35;3.50;99.90
5011;DHT22;2524;54.364;10.072;2023-11-22T03:39:01;3.50;99.90
5011;DHT22;2524;54.364;10.072;2023-11-22T03:41:28;3.50;99.90
5011;DHT22;2524;54.364;10.072;2023-11-22T03:43:53;3.50;99.90
5011;DHT22;2524;54.364;10.072;2023-11-22T03:46:19;3.50;99.90
5011;DHT22;2524;54.364;10.072;2023-11-22T03:48:44;3.50;99.90
5011;DHT22;2524;54.364;10.072;2023-11-22T03:51:10;3.50;99.90
5011;DHT22;2524;54.364;10.072;2023-11-22T03:53:35;3.50;99.90
5011;DHT22;2524;54.364;10.072;2023-11-22T03:56:01;3.50;99.90
5011;DHT22;2524;54.364;10.072;2023-11-22T03:58:27;3.50;99.90
5011;DHT22;2524;54.364;10.072;2023-11-22T04:00:52;3.50;99.90
5011;DHT22;2524;54.364;10.072;2023-11-22T04:03:18;3.50;99.90
5011;DHT22;2524;54.364;10.072;2023-11-22T04:05:44;3.40;99.90
5011;DHT22;2524;54.364;10.072;2023-11-22T04:08:10;3.40;99.90
5011;DHT22;2524;54.364;10.072;2023-11-22T04:10:35;3.30;99.90
5011;DHT22;2524;54.364;10.072;2023-11-22T04:13:01;3.30;99.90
5011;DHT22;2524;54.364;10.072;2023-11-22T04:15:26;3.30;99.90
5011;DHT22;2524;54.364;10.072;2023-11-22T04:17:52;3.30;99.90
5011;DHT22;2524;54.364;10.072;2023-11-22T04:20:20;3.20;99.90
5011;DHT22;2524;54.364;10.072;2023-11-22T04:22:45;3.20;99.90
5011;DHT22;2524;54.364;10.072;2023-11-22T04:25:11;3.10;99.90
5011;DHT22;2524;54.364;10.072;2023-11-22T04:27:40;3.20;99.90
5011;DHT22;2524;54.364;10.072;2023-11-22T04:30:07;3.20;99.90
5011;DHT22;2524;54.364;10.072;2023-11-22T04:32:35;3.20;99.90
5011;DHT22;2524;54.364;10.072;2023-11-22T04:35:02;3.20;99.90
5011;DHT22;2524;54.364;10.072;2023-11-22T04:37:29;3.30;99.90
5011;DHT22;2524;54.364;10.072;2023-11-22T04:39:57;3.30;99.90
5011;DHT22;2524;54.364;10.072;2023-11-22T04:42:22;3.20;99.90
5011;DHT22;2524;54.364;10.072;2023-11-22T04:44:48;3.10;99.90
5011;DHT22;2524;54.364;10.072;2023-11-22T04:47:14;3.00;99.90
5011;DHT22;2524;54.364;10.072;2023-11-22T04:49:40;3.00;99.90
5011;DHT22;2524;54.364;10.072;2023-11-22T04:52:07;3.00;99.90
5011;DHT22;2524;54.364;10.072;2023-11-22T04:54:33;3.00;99.90
5011;DHT22;2524;54.364;10.072;2023-11-22T04:56:59;3.00;99.90
5011;DHT22;2524;54.364;10.072;2023-11-22T04:59:25;3.00;99.90
5011;DHT22;2524;54.364;10.072;2023-11-22T05:01:50;3.00;99.90
5011;DHT22;2524;54.364;10.072;2023-11-22T05:04:16;3.00;99.90
5011;DHT22;2524;54.364;10.072;2023-11-22T05:06:43;3.10;99.90
5011;DHT22;2524;54.364;10.072;2023-11-22T05:09:09;3.10;99.90
5011;DHT22;2524;54.364;10.072;2023-11-22T05:11:36;3.10;99.90
5011;DHT22;2524;54.364;10.072;2023-11-22T05:14:02;3.10;99.90
5011;DHT22;2524;54.364;10.072;2023-11-22T05:16:27;3.10;99.90
5011;DHT22;2524;54.364;10.072;2023-11-22T05:18:53;3.10;99.90
5011;DHT22;2524;54.364;10.072;2023-11-22T05:21:18;3.10;99.90
5011;DHT22;2524;54.364;10.072;2023-11-22T05:23:44;3.10;99.90
5011;DHT22;2524;54.364;10.072;2023-11-22T05:26:10;3.20;99.90
5011;DHT22;2524;54.364;10.072;2023-11-22T05:28:36;3.10;99.90
5011;DHT22;2524;54.364;10.072;2023-11-22T05:31:01;3.10;99.90
5011;DHT22;2524;54.364;10.072;2023-11-22T05:33:27;3.10;99.90
5011;DHT22;2524;54.364;10.072;2023-11-22T05:35:52;3.00;99.90
5011;DHT22;2524;54.364;10.072;2023-11-22T05:38:19;3.00;99.90
5011;DHT22;2524;54.364;10.072;2023-11-22T05:40:44;3.00;99.90
5011;DHT22;2524;54.364;10.072;2023-11-22T05:43:10;3.00;99.90
5011;DHT22;2524;54.364;10.072;2023-11-22T05:45:36;3.00;99.90
5011;DHT22;2524;54.364;10.072;2023-11-22T05:48:01;2.90;99.90
5011;DHT22;2524;54.364;10.072;2023-11-22T05:50:27;3.00;99.90
5011;DHT22;2524;54.364;10.072;2023-11-22T05:52:52;3.00;99.90
5011;DHT22;2524;54.364;10.072;2023-11-22T05:55:18;3.00;99.90
5011;DHT22;2524;54.364;10.072;2023-11-22T05:57:44;3.00;99.90
5011;DHT22;2524;54.364;10.072;2023-11-22T06:00:10;3.00;99.90
5011;DHT22;2524;54.364;10.072;2023-11-22T06:02:36;3.00;99.90
5011;DHT22;2524;54.364;10.072;2023-11-22T06:05:04;3.00;99.90
5011;DHT22;2524;54.364;10.072;2023-11-22T06:07:31;3.10;99.90
5011;DHT22;2524;54.364;10.072;2023-11-22T06:09:56;3.10;99.90
5011;DHT22;2524;54.364;10.072;2023-11-22T06:12:22;3.10;99.90
5011;DHT22;2524;54.364;10.072;2023-11-22T06:14:48;3.10;99.90
5011;DHT22;2524;54.364;10.072;2023-11-22T06:17:13;3.10;99.90
5011;DHT22;2524;54.364;10.072;2023-11-22T06:19:40;3.10;99.90
5011;DHT22;2524;54.364;10.072;2023-11-22T06:22:06;3.10;99.90
5011;DHT22;2524;54.364;10.072;2023-11-22T06:24:32;3.10;99.90
5011;DHT22;2524;54.364;10.072;2023-11-22T06:26:59;3.10;99.90
5011;DHT22;2524;54.364;10.072;2023-11-22T06:29:25;3.10;99.90
5011;DHT22;2524;54.364;10.072;2023-11-22T06:31:50;3.10;99.90
5011;DHT22;2524;54.364;10.072;2023-11-22T06:34:16;3.10;99.90
5011;DHT22;2524;54.364;10.072;2023-11-22T06:36:42;3.10;99.90
5011;DHT22;2524;54.364;10.072;2023-11-22T06:39:07;3.10;99.90
5011;DHT22;2524;54.364;10.072;2023-11-22T06:41:34;3.10;99.90
5011;DHT22;2524;54.364;10.072;2023-11-22T06:44:00;3.10;99.90
5011;DHT22;2524;54.364;10.072;2023-11-22T06:46:25;3.10;99.90
5011;DHT22;2524;54.364;10.072;2023-11-22T06:48:51;3.10;99.90
5011;DHT22;2524;54.364;10.072;2023-11-22T06:51:16;3.00;99.90
5011;DHT22;2524;54.364;10.072;2023-11-22T06:53:44;3.10;99.90
5011;DHT22;2524;54.364;10.072;2023-11-22T06:56:11;3.10;99.90
5011;DHT22;2524;54.364;10.072;2023-11-22T06:58:36;3.10;99.90
5011;DHT22;2524;54.364;10.072;2023-11-22T07:01:02;3.10;99.90
5011;DHT22;2524;54.364;10.072;2023-11-22T07:03:29;3.10;99.90
5011;DHT22;2524;54.364;10.072;2023-11-22T07:05:54;3.10;99.90
5011;DHT22;2524;54.364;10.072;2023-11-22T07:08:20;3.10;99.90
5011;DHT22;2524;54.364;10.072;2023-11-22T07:10:47;3.10;99.90
5011;DHT22;2524;54.364;10.072;2023-11-22T07:13:13;3.10;99.90
5011;DHT22;2524;54.364;10.072;2023-11-22T07:15:39;3.10;99.90
5011;DHT22;2524;54.364;10.072;2023-11-22T07:18:06;3.10;99.90
5011;DHT22;2524;54.364;10.072;2023-11-22T07:20:31;3.10;99.90
5011;DHT22;2524;54.364;10.072;2023-11-22T07:22:58;3.10;99.90
5011;DHT22;2524;54.364;10.072;2023-11-22T07:25:25;3.10;99.90
5011;DHT22;2524;54.364;10.072;2023-11-22T07:27:52;3.10;99.90
5011;DHT22;2524;54.364;10.072;2023-11-22T07:30:18;3.10;99.90
5011;DHT22;2524;54.364;10.072;2023-11-22T07:32:55;3.10;99.90
5011;DHT22;2524;54.364;10.072;2023-11-22T07:35:20;3.10;99.90
5011;DHT22;2524;54.364;10.072;2023-11-22T07:37:47;3.10;99.90
5011;DHT22;2524;54.364;10.072;2023-11-22T07:40:14;3.10;99.90
5011;DHT22;2524;54.364;10.072;2023-11-22T07:42:42;3.10;99.90
5011;DHT22;2524;54.364;10.072;2023-11-22T07:45:09;3.10;99.90
5011;DHT22;2524;54.364;10.072;2023-11-22T07:47:37;3.10;99.90
5011;DHT22;2524;54.364;10.072;2023-11-22T07:50:07;3.10;99.90
5011;DHT22;2524;54.364;10.072;2023-11-22T07:52:33;3.10;99.90
5011;DHT22;2524;54.364;10.072;2023-11-22T07:54:59;3.10;99.90
5011;DHT22;2524;54.364;10.072;2023-11-22T07:57:24;3.10;99.90
5011;DHT22;2524;54.364;10.072;2023-11-22T07:59:50;3.10;99.90
5011;DHT22;2524;54.364;10.072;2023-11-22T08:02:20;3.10;99.90
5011;DHT22;2524;54.364;10.072;2023-11-22T08:04:45;3.10;99.90
5011;DHT22;2524;54.364;10.072;2023-11-22T08:07:13;3.10;99.90
5011;DHT22;2524;54.364;10.072;2023-11-22T08:09:42;3.10;99.90
5011;DHT22;2524;54.364;10.072;2023-11-22T08:12:08;3.10;99.90
5011;DHT22;2524;54.364;10.072;2023-11-22T08:14:36;3.10;99.90
5011;DHT22;2524;54.364;10.072;2023-11-22T08:17:02;3.10;99.90
5011;DHT22;2524;54.364;10.072;2023-11-22T08:19:29;3.20;99.90
5011;DHT22;2524;54.364;10.072;2023-11-22T08:21:54;3.10;99.90
5011;DHT22;2524;54.364;10.072;2023-11-22T08:24:20;3.10;99.90
5011;DHT22;2524;54.364;10.072;2023-11-22T08:26:46;3.10;99.90
5011;DHT22;2524;54.364;10.072;2023-11-22T08:29:11;3.10;99.90
5011;DHT22;2524;54.364;10.072;2023-11-22T08:31:37;3.10;99.90
5011;DHT22;2524;54.364;10.072;2023-11-22T08:34:03;3.10;99.90
5011;DHT22;2524;54.364;10.072;2023-11-22T08:36:32;3.10;99.90
5011;DHT22;2524;54.364;10.072;2023-11-22T08:39:02;3.00;99.90
5011;DHT22;2524;54.364;10.072;2023-11-22T08:41:29;3.00;99.90
5011;DHT22;2524;54.364;10.072;2023-11-22T08:43:56;3.00;99.90
5011;DHT22;2524;54.364;10.072;2023-11-22T08:46:22;3.00;99.90
5011;DHT22;2524;54.364;10.072;2023-11-22T08:48:49;3.00;99.90
5011;DHT22;2524;54.364;10.072;2023-11-22T08:51:14;3.00;99.90
5011;DHT22;2524;54.364;10.072;2023-11-22T08:53:40;3.00;99.90
5011;DHT22;2524;54.364;10.072;2023-11-22T08:56:06;3.00;99.90
5011;DHT22;2524;54.364;10.072;2023-11-22T08:58:34;3.00;99.90
5011;DHT22;2524;54.364;10.072;2023-11-22T09:00:59;3.00;99.90
5011;DHT22;2524;54.364;10.072;2023-11-22T09:03:25;3.00;99.90
5011;DHT22;2524;54.364;10.072;2023-11-22T09:05:52;3.00;99.90
5011;DHT22;2524;54.364;10.072;2023-11-22T09:08:19;3.00;99.90
5011;DHT22;2524;54.364;10.072;2023-11-22T09:10:46;3.10;99.90
5011;DHT22;2524;54.364;10.072;2023-11-22T09:13:12;3.10;99.90
5011;DHT22;2524;54.364;10.072;2023-11-22T09:15:41;3.10;99.90
5011;DHT22;2524;54.364;10.072;2023-11-22T09:18:10;3.10;99.90
5011;DHT22;2524;54.364;10.072;2023-11-22T09:20:35;3.10;99.90
5011;DHT22;2524;54.364;10.072;2023-11-22T09:23:01;3.00;99.90
5011;DHT22;2524;54.364;10.072;2023-11-22T09:25:27;3.00;99.90
5011;DHT22;2524;54.364;10.072;2023-11-22T09:27:57;3.10;99.90
5011;DHT22;2524;54.364;10.072;2023-11-22T09:30:29;3.10;99.90
5011;DHT22;2524;54.364;10.072;2023-11-22T09:33:10;3.10;99.90
5011;DHT22;2524;54.364;10.072;2023-11-22T09:35:38;3.10;99.90
5011;DHT22;2524;54.364;10.072;2023-11-22T09:38:05;3.10;99.90
5011;DHT22;2524;54.364;10.072;2023-11-22T09:40:44;3.10;99.90
5011;DHT22;2524;54.364;10.072;2023-11-22T09:43:11;3.10;99.90
5011;DHT22;2524;54.364;10.072;2023-11-22T09:45:36;3.20;99.90
5011;DHT22;2524;54.364;10.072;2023-11-22T09:48:15;3.20;99.90
5011;DHT22;2524;54.364;10.072;2023-11-22T09:53:22;3.20;99.90
5011;DHT22;2524;54.364;10.072;2023-11-22T09:55:48;3.20;99.90
5011;DHT22;2524;54.364;10.072;2023-11-22T09:58:13;3.20;99.90
5011;DHT22;2524;54.364;10.072;2023-11-22T10:00:41;3.20;99.90
5011;DHT22;2524;54.364;10.072;2023-11-22T10:03:07;3.20;99.90
5011;DHT22;2524;54.364;10.072;2023-11-22T10:05:34;3.20;99.90
5011;DHT22;2524;54.364;10.072;2023-11-22T10:08:00;3.20;99.90
5011;DHT22;2524;54.364;10.072;2023-11-22T10:10:26;3.20;99.90
5011;DHT22;2524;54.364;10.072;2023-11-22T10:12:55;3.30;99.90
5011;DHT22;2524;54.364;10.072;2023-11-22T10:15:23;3.30;99.90
5011;DHT22;2524;54.364;10.072;2023-11-22T10:17:57;3.30;99.90
5011;DHT22;2524;54.364;10.072;2023-11-22T10:20:24;3.30;99.90
5011;DHT22;2524;54.364;10.072;2023-11-22T10:22:51;3.30;99.90
5011;DHT22;2524;54.364;10.072;2023-11-22T10:25:17;3.30;99.90
5011;DHT22;2524;54.364;10.072;2023-11-22T10:27:47;3.30;99.90
5011;DHT22;2524;54.364;10.072;2023-11-22T10:30:13;3.30;99.90
5011;DHT22;2524;54.364;10.072;2023-11-22T10:32:41;3.30;99.90
5011;DHT22;2524;54.364;10.072;2023-11-22T10:35:07;3.30;99.90
5011;DHT22;2524;54.364;10.072;2023-11-22T10:37:33;3.40;99.90
5011;DHT22;2524;54.364;10.072;2023-11-22T10:40:00;3.40;99.90
5011;DHT22;2524;54.364;10.072;2023-11-22T10:42:26;3.40;99.90
5011;DHT22;2524;54.364;10.072;2023-11-22T10:44:55;3.40;99.90
5011;DHT22;2524;54.364;10.072;2023-11-22T10:47:22;3.50;99.90
5011;DHT22;2524;54.364;10.072;2023-11-22T10:49:49;3.50;99.90
5011;DHT22;2524;54.364;10.072;2023-11-22T10:52:18;3.50;99.90
5011;DHT22;2524;54.364;10.072;2023-11-22T10:54:50;3.50;99.90
5011;DHT22;2524;54.364;10.072;2023-11-22T10:57:22;3.50;99.90
5011;DHT22;2524;54.364;10.072;2023-11-22T10:59:54;3.50;99.90
5011;DHT22;2524;54.364;10.072;2023-11-22T11:02:21;3.60;99.90
5011;DHT22;2524;54.364;10.072;2023-11-22T11:04:58;3.60;99.90
5011;DHT22;2524;54.364;10.072;2023-11-22T11:07:27;3.60;99.90
5011;DHT22;2524;54.364;10.072;2023-11-22T11:09:56;3.60;99.90
5011;DHT22;2524;54.364;10.072;2023-11-22T11:12:23;3.60;99.90
5011;DHT22;2524;54.364;10.072;2023-11-22T11:14:50;3.60;99.90
5011;DHT22;2524;54.364;10.072;2023-11-22T11:17:17;3.60;99.90
5011;DHT22;2524;54.364;10.072;2023-11-22T11:19:43;3.60;99.90
5011;DHT22;2524;54.364;10.072;2023-11-22T11:22:09;3.70;99.90
5011;DHT22;2524;54.364;10.072;2023-11-22T11:24:41;3.70;99.90
5011;DHT22;2524;54.364;10.072;2023-11-22T11:27:12;3.70;99.90
5011;DHT22;2524;54.364;10.072;2023-11-22T11:29:38;3.70;99.90
5011;DHT22;2524;54.364;10.072;2023-11-22T11:32:30;3.70;99.90
5011;DHT22;2524;54.364;10.072;2023-11-22T11:35:01;3.70;99.90
5011;DHT22;2524;54.364;10.072;2023-11-22T11:37:30;3.80;99.90
5011;DHT22;2524;54.364;10.072;2023-11-22T11:39:58;3.80;99.90
5011;DHT22;2524;54.364;10.072;2023-11-22T11:42:24;3.80;99.90
5011;DHT22;2524;54.364;10.072;2023-11-22T11:47:27;3.80;99.90
5011;DHT22;2524;54.364;10.072;2023-11-22T11:49:52;3.80;99.90
5011;DHT22;2524;54.364;10.072;2023-11-22T11:52:18;3.80;99.90
5011;DHT22;2524;54.364;10.072;2023-11-22T11:54:44;3.80;99.90
5011;DHT22;2524;54.364;10.072;2023-11-22T11:57:10;3.80;99.90
5011;DHT22;2524;54.364;10.072;2023-11-22T11:59:36;3.80;99.90
5011;DHT22;2524;54.364;10.072;2023-11-22T12:02:01;3.90;99.90
5011;DHT22;2524;54.364;10.072;2023-11-22T12:04:31;3.90;99.90
5011;DHT22;2524;54.364;10.072;2023-11-22T12:06:57;3.80;99.90
5011;DHT22;2524;54.364;10.072;2023-11-22T12:09:24;3.90;99.90
5011;DHT22;2524;54.364;10.072;2023-11-22T12:11:53;3.90;99.90
5011;DHT22;2524;54.364;10.072;2023-11-22T12:14:20;3.90;99.90
5011;DHT22;2524;54.364;10.072;2023-11-22T12:16:45;3.90;99.90
5011;DHT22;2524;54.364;10.072;2023-11-22T12:19:22;3.90;99.90
5011;DHT22;2524;54.364;10.072;2023-11-22T12:21:48;3.90;99.90
5011;DHT22;2524;54.364;10.072;2023-11-22T12:24:14;3.90;99.90
5011;DHT22;2524;54.364;10.072;2023-11-22T12:26:47;3.90;99.90
5011;DHT22;2524;54.364;10.072;2023-11-22T12:29:16;3.90;99.90
5011;DHT22;2524;54.364;10.072;2023-11-22T12:31:49;3.90;99.90
5011;DHT22;2524;54.364;10.072;2023-11-22T12:34:22;3.90;99.90
5011;DHT22;2524;54.364;10.072;2023-11-22T12:36:49;3.90;99.90
5011;DHT22;2524;54.364;10.072;2023-11-22T12:39:15;3.90;99.90
5011;DHT22;2524;54.364;10.072;2023-11-22T12:41:46;3.90;99.90
5011;DHT22;2524;54.364;10.072;2023-11-22T12:44:12;3.90;99.90
5011;DHT22;2524;54.364;10.072;2023-11-22T12:46:51;3.80;99.90
5011;DHT22;2524;54.364;10.072;2023-11-22T12:49:23;3.90;99.90
5011;DHT22;2524;54.364;10.072;2023-11-22T12:51:50;3.80;99.90
5011;DHT22;2524;54.364;10.072;2023-11-22T12:54:15;3.90;99.90
5011;DHT22;2524;54.364;10.072;2023-11-22T12:56:42;3.90;99.90
5011;DHT22;2524;54.364;10.072;2023-11-22T12:59:08;3.90;99.90
5011;DHT22;2524;54.364;10.072;2023-11-22T13:01:34;3.90;99.90
5011;DHT22;2524;54.364;10.072;2023-11-22T13:04:00;3.90;99.90
5011;DHT22;2524;54.364;10.072;2023-11-22T13:06:26;3.90;99.90
5011;DHT22;2524;54.364;10.072;2023-11-22T13:08:52;3.90;99.90
5011;DHT22;2524;54.364;10.072;2023-11-22T13:11:19;3.90;99.90
5011;DHT22;2524;54.364;10.072;2023-11-22T13:13:44;3.90;99.90
5011;DHT22;2524;54.364;10.072;2023-11-22T13:16:12;3.90;99.90
5011;DHT22;2524;54.364;10.072;2023-11-22T13:18:37;3.90;99.90
5011;DHT22;2524;54.364;10.072;2023-11-22T13:21:04;3.90;99.90
5011;DHT22;2524;54.364;10.072;2023-11-22T13:23:29;3.90;99.90
5011;DHT22;2524;54.364;10.072;2023-11-22T13:25:55;3.90;99.90
5011;DHT22;2524;54.364;10.072;2023-11-22T13:28:20;3.90;99.90
5011;DHT22;2524;54.364;10.072;2023-11-22T13:30:46;3.90;99.90
5011;DHT22;2524;54.364;10.072;2023-11-22T13:33:14;4.00;99.90
5011;DHT22;2524;54.364;10.072;2023-11-22T13:35:39;4.00;99.90
5011;DHT22;2524;54.364;10.072;2023-11-22T13:38:06;3.90;99.90
5011;DHT22;2524;54.364;10.072;2023-11-22T13:40:36;3.90;99.90
5011;DHT22;2524;54.364;10.072;2023-11-22T13:43:04;3.90;99.90
5011;DHT22;2524;54.364;10.072;2023-11-22T13:45:30;4.00;99.90
5011;DHT22;2524;54.364;10.072;2023-11-22T13:47:56;4.00;99.90
5011;DHT22;2524;54.364;10.072;2023-11-22T13:50:32;4.00;99.90
5011;DHT22;2524;54.364;10.072;2023-11-22T13:52:58;4.00;99.90
5011;DHT22;2524;54.364;10.072;2023-11-22T13:55:24;4.00;99.90
5011;DHT22;2524;54.364;10.072;2023-11-22T13:57:51;3.90;99.90
5011;DHT22;2524;54.364;10.072;2023-11-22T14:00:18;4.00;99.90
5011;DHT22;2524;54.364;10.072;2023-11-22T14:02:46;4.00;99.90
5011;DHT22;2524;54.364;10.072;2023-11-22T14:05:11;4.00;99.90
5011;DHT22;2524;54.364;10.072;2023-11-22T14:07:37;4.00;99.90
5011;DHT22;2524;54.364;10.072;2023-11-22T14:10:04;4.00;99.90
5011;DHT22;2524;54.364;10.072;2023-11-22T14:12:30;4.00;99.90
5011;DHT22;2524;54.364;10.072;2023-11-22T14:14:59;4.00;99.90
5011;DHT22;2524;54.364;10.072;2023-11-22T14:17:25;4.00;99.90
5011;DHT22;2524;54.364;10.072;2023-11-22T14:19:52;4.00;99.90
5011;DHT22;2524;54.364;10.072;2023-11-22T14:22:18;4.00;99.90
5011;DHT22;2524;54.364;10.072;2023-11-22T14:24:46;4.00;99.90
5011;DHT22;2524;54.364;10.072;2023-11-22T14:27:12;4.00;99.90
5011;DHT22;2524;54.364;10.072;2023-11-22T14:29:38;4.00;99.90
5011;DHT22;2524;54.364;10.072;2023-11-22T14:32:04;4.00;99.90
5011;DHT22;2524;54.364;10.072;2023-11-22T14:34:29;4.00;99.90
5011;DHT22;2524;54.364;10.072;2023-11-22T14:36:55;4.00;99.90
5011;DHT22;2524;54.364;10.072;2023-11-22T14:39:21;4.00;99.90
5011;DHT22;2524;54.364;10.072;2023-11-22T14:41:47;4.00;99.90
5011;DHT22;2524;54.364;10.072;2023-11-22T14:44:12;4.00;99.90
5011;DHT22;2524;54.364;10.072;2023-11-22T14:46:38;4.00;99.90
5011;DHT22;2524;54.364;10.072;2023-11-22T14:49:04;4.00;99.90
5011;DHT22;2524;54.364;10.072;2023-11-22T14:51:30;4.00;99.90
5011;DHT22;2524;54.364;10.072;2023-11-22T14:53:56;4.00;99.90
5011;DHT22;2524;54.364;10.072;2023-11-22T14:56:21;4.00;99.90
5011;DHT22;2524;54.364;10.072;2023-11-22T14:58:48;4.00;99.90
5011;DHT22;2524;54.364;10.072;2023-11-22T15:01:22;4.00;99.90
5011;DHT22;2524;54.364;10.072;2023-11-22T15:03:52;4.00;99.90
5011;DHT22;2524;54.364;10.072;2023-11-22T15:06:19;4.00;99.90
5011;DHT22;2524;54.364;10.072;2023-11-22T15:08:45;4.00;99.90
5011;DHT22;2524;54.364;10.072;2023-11-22T15:11:11;3.90;99.90
5011;DHT22;2524;54.364;10.072;2023-11-22T15:13:37;4.00;99.90
5011;DHT22;2524;54.364;10.072;2023-11-22T15:16:02;4.00;99.90
5011;DHT22;2524;54.364;10.072;2023-11-22T15:18:28;4.00;99.90
5011;DHT22;2524;54.364;10.072;2023-11-22T15:20:56;4.00;99.90
5011;DHT22;2524;54.364;10.072;2023-11-22T15:23:21;4.00;99.90
5011;DHT22;2524;54.364;10.072;2023-11-22T15:25:47;4.00;99.90
5011;DHT22;2524;54.364;10.072;2023-11-22T15:28:13;4.00;99.90
5011;DHT22;2524;54.364;10.072;2023-11-22T15:30:47;4.00;99.90
5011;DHT22;2524;54.364;10.072;2023-11-22T15:33:17;4.00;99.90
5011;DHT22;2524;54.364;10.072;2023-11-22T15:35:43;4.00;99.90
5011;DHT22;2524;54.364;10.072;2023-11-22T15:38:09;4.00;99.90
5011;DHT22;2524;54.364;10.072;2023-11-22T15:40:34;4.00;99.90
5011;DHT22;2524;54.364;10.072;2023-11-22T15:43:00;4.00;99.90
5011;DHT22;2524;54.364;10.072;2023-11-22T15:45:25;4.00;99.90
5011;DHT22;2524;54.364;10.072;2023-11-22T15:47:51;4.00;99.90
5011;DHT22;2524;54.364;10.072;2023-11-22T15:50:17;4.00;99.90
5011;DHT22;2524;54.364;10.072;2023-11-22T15:52:42;4.00;99.90
5011;DHT22;2524;54.364;10.072;2023-11-22T15:55:08;3.90;99.90
5011;DHT22;2524;54.364;10.072;2023-11-22T15:57:34;3.90;99.90
5011;DHT22;2524;54.364;10.072;2023-11-22T16:00:00;3.90;99.90
5011;DHT22;2524;54.364;10.072;2023-11-22T16:02:26;3.90;99.90
5011;DHT22;2524;54.364;10.072;2023-11-22T16:04:53;3.90;99.90